Time;durP1;ratioP1;P1;durP2;ratioP2;P2;SDS_P1;SDS_P2;PMS_P1;PMS_P2;Temp;Humidity;BMP_temperature;BMP_pressure;BME280_temperature;BME280_humidity;BME280_pressure;Samples;Min_cycle;Max_cycle;Signal;HPM_P1;HPM_P2
2022/01/02 00:00:04;;;;;;;8.43;1.90;;;;;;;10.27;100.00;99554.97;4952524;28;20047;-85
2022/01/02 00:02:33;;;;;;;8.15;1.60;;;;;;;10.61;100.00;99555.75;4953154;28;20458;-85
2022/01/02 00:05:06;;;;;;;9.00;2.13;;;;;;;10.48;100.00;99562.59;4969975;28;20046;-86
2022/01/02 00:07:43;;;;;;;11.13;2.20;;;;;;;10.15;100.00;99553.03;4951101;28;20660;-85
2022/01/02 00:10:12;;;;;;;8.18;1.83;;;;;;;10.49;100.00;99550.38;4955195;28;20057;-85
2022/01/02 00:12:44;;;;;;;8.70;1.52;;;;;;;10.16;100.00;99522.47;4948738;28;20073;-85
2022/01/02 00:15:12;;;;;;;14.55;2.25;;;;;;;10.08;100.00;99528.97;4955838;28;20042;-85
2022/01/02 00:17:39;;;;;;;7.65;2.08;;;;;;;10.36;100.00;99542.38;4948120;28;20047;-84
2022/01/02 00:20:12;;;;;;;8.00;1.70;;;;;;;10.20;100.00;99519.63;4972295;28;20051;-85
2022/01/02 00:22:41;;;;;;;13.38;2.47;;;;;;;10.27;100.00;99541.06;4971265;28;20062;-85
2022/01/02 00:25:15;;;;;;;9.68;1.95;;;;;;;10.21;100.00;99544.84;4965006;28;20050;-85
2022/01/02 00:27:43;;;;;;;9.50;1.60;;;;;;;10.11;100.00;99524.50;4951929;28;20047;-85
2022/01/02 00:30:11;;;;;;;5.13;1.80;;;;;;;10.17;100.00;99535.47;4969781;28;20052;-85
2022/01/02 00:32:38;;;;;;;6.85;1.90;;;;;;;10.11;100.00;99534.97;4952343;28;20101;-85
2022/01/02 00:35:05;;;;;;;11.07;1.95;;;;;;;10.08;100.00;99536.81;4968715;28;20485;-85
2022/01/02 00:37:31;;;;;;;7.18;1.52;;;;;;;10.24;100.00;99526.38;4955518;28;20055;-85
2022/01/02 00:39:58;;;;;;;8.57;1.55;;;;;;;10.39;100.00;99526.47;4971719;28;20046;-85
2022/01/02 00:42:31;;;;;;;8.80;2.05;;;;;;;9.96;100.00;99511.34;4963379;28;20058;-85
2022/01/02 00:45:03;;;;;;;9.77;1.90;;;;;;;10.09;100.00;99555.97;4970604;28;20464;-85
2022/01/02 00:47:37;;;;;;;11.88;2.20;;;;;;;10.15;100.00;99544.34;4956025;28;20051;-85
2022/01/02 00:50:19;;;;;;;8.13;2.28;;;;;;;10.22;100.00;99553.56;4967923;28;20134;-85
2022/01/02 00:52:48;;;;;;;11.27;2.20;;;;;;;10.31;100.00;99553.06;4948979;28;20058;-85
2022/01/02 00:55:23;;;;;;;9.60;1.60;;;;;;;10.16;100.00;99546.03;4972584;28;20053;-85
2022/01/02 00:58:18;;;;;;;8.25;2.28;;;;;;;10.17;100.00;99535.47;4952861;28;20394;-85
2022/01/02 01:00:49;;;;;;;7.75;1.80;;;;;;;10.28;100.00;99534.88;4969623;28;20042;-85
2022/01/02 01:03:39;;;;;;;7.55;1.70;;;;;;;10.05;100.00;99541.38;4955018;28;20471;-85
2022/01/02 01:06:10;;;;;;;14.90;2.67;;;;;;;10.05;100.00;99530.91;4954348;28;20408;-85
2022/01/02 01:08:40;;;;;;;8.30;2.10;;;;;;;9.87;100.00;99538.00;4971911;28;20043;-85
2022/01/02 01:11:11;;;;;;;10.45;1.83;;;;;;;9.98;100.00;99519.13;4956277;28;20634;-85
2022/01/02 01:13:38;;;;;;;11.05;2.45;;;;;;;9.86;100.00;99515.38;4955621;28;20417;-85
2022/01/02 01:16:05;;;;;;;7.43;2.05;;;;;;;9.86;100.00;99516.25;4955911;28;20103;-85
2022/01/02 01:18:32;;;;;;;11.82;2.13;;;;;;;9.75;100.00;99520.34;4946488;29;20615;-85
2022/01/02 01:20:59;;;;;;;9.95;2.42;;;;;;;9.71;100.00;99500.53;4955075;28;20050;-85
2022/01/02 01:23:25;;;;;;;5.90;1.80;;;;;;;9.72;100.00;99499.59;4971475;28;20051;-85
2022/01/02 01:25:52;;;;;;;10.82;2.40;;;;;;;9.49;100.00;99494.69;4944108;28;20063;-85
2022/01/02 01:28:20;;;;;;;9.10;1.95;;;;;;;9.68;100.00;99484.09;4957871;28;20047;-85
2022/01/02 01:30:48;;;;;;;8.30;2.17;;;;;;;9.79;100.00;99491.38;4955405;28;20412;-85
2022/01/02 01:33:15;;;;;;;12.70;2.20;;;;;;;9.49;100.00;99491.22;4954488;28;20050;-85
2022/01/02 01:35:42;;;;;;;8.35;2.78;;;;;;;9.66;100.00;99491.16;4955403;28;20055;-85
2022/01/02 01:38:10;;;;;;;7.47;1.83;;;;;;;9.71;100.00;99498.78;4968846;28;20074;-84
2022/01/02 01:40:44;;;;;;;8.30;2.38;;;;;;;9.70;100.00;99499.69;4935873;29;20055;-85
2022/01/02 01:43:13;;;;;;;12.60;2.22;;;;;;;9.77;100.00;99484.50;4936648;28;20055;-85
2022/01/02 01:45:40;;;;;;;8.25;2.33;;;;;;;9.85;100.00;99485.78;4957873;29;20051;-85
2022/01/02 01:48:08;;;;;;;10.25;1.80;;;;;;;9.89;100.00;99499.53;4958771;28;20103;-85
2022/01/02 01:50:38;;;;;;;6.28;1.75;;;;;;;9.72;100.00;99484.78;4959866;28;20658;-85
2022/01/02 01:53:05;;;;;;;10.68;1.98;;;;;;;9.42;100.00;99506.38;4959671;28;20057;-85
2022/01/02 01:55:34;;;;;;;9.07;1.63;;;;;;;9.64;100.00;99497.41;4959261;28;20481;-85
2022/01/02 01:58:02;;;;;;;9.57;2.30;;;;;;;9.56;100.00;99490.00;4957535;28;20057;-85
2022/01/02 02:00:32;;;;;;;12.35;1.92;;;;;;;9.65;100.00;99493.84;4958948;28;20054;-85
2022/01/02 02:02:59;;;;;;;8.68;1.67;;;;;;;9.65;100.00;99486.00;4959168;28;20158;-85
2022/01/02 02:05:26;;;;;;;12.35;2.45;;;;;;;9.73;100.00;99493.47;4959277;28;20127;-85
2022/01/02 02:07:53;;;;;;;11.57;2.00;;;;;;;9.10;100.00;99494.97;4958059;28;20047;-85
2022/01/02 02:10:51;;;;;;;9.40;1.85;;;;;;;9.28;100.00;99464.47;4959219;28;20054;-85
2022/01/02 02:13:09;;;;;;;12.38;2.15;;;;;;;9.22;100.00;99470.00;4960441;28;20482;-86
2022/01/02 02:15:36;;;;;;;8.50;2.10;;;;;;;9.12;100.00;99454.81;4939269;29;20051;-85
2022/01/02 02:18:03;;;;;;;8.93;1.73;;;;;;;8.97;100.00;99455.59;4940093;28;20047;-85
2022/01/02 02:20:33;;;;;;;7.70;2.05;;;;;;;8.90;100.00;99473.34;4959025;28;20053;-86
2022/01/02 02:23:01;;;;;;;7.13;3.47;;;;;;;8.89;100.00;99474.28;4975725;28;20050;-86
2022/01/02 02:25:30;;;;;;;8.10;2.28;;;;;;;8.51;100.00;99471.81;4958518;28;20059;-85
2022/01/02 02:28:00;;;;;;;8.77;1.88;;;;;;;8.48;100.00;99468.50;4956804;28;20046;-85
2022/01/02 02:30:30;;;;;;;12.35;2.83;;;;;;;8.61;100.00;99466.16;4946511;28;20073;-85
2022/01/02 02:32:59;;;;;;;10.57;2.63;;;;;;;8.49;100.00;99436.28;4958212;28;20058;-84
2022/01/02 02:35:29;;;;;;;10.20;2.05;;;;;;;8.44;100.00;99452.16;4955975;29;20055;-85
2022/01/02 02:37:56;;;;;;;8.18;2.13;;;;;;;8.37;100.00;99458.56;4940639;28;20055;-85
2022/01/02 02:40:25;;;;;;;15.15;2.63;;;;;;;8.43;100.00;99454.84;4956093;29;20055;-86
2022/01/02 02:51:21;;;;;;;10.65;3.53;;;;;;;8.73;100.00;99452.50;4975902;28;20042;-86
2022/01/02 02:53:49;;;;;;;9.52;1.92;;;;;;;8.67;100.00;99453.63;4958094;28;20137;-86
2022/01/02 02:56:25;;;;;;;12.30;1.90;;;;;;;8.64;100.00;99447.72;4957380;28;20061;-86
2022/01/02 02:58:56;;;;;;;9.13;1.90;;;;;;;8.66;100.00;99448.50;4971527;28;20477;-86
2022/01/02 03:01:26;;;;;;;10.20;1.83;;;;;;;8.53;100.00;99448.25;4957466;28;20055;-85
2022/01/02 03:03:54;;;;;;;8.82;1.77;;;;;;;8.47;100.00;99459.84;4957923;28;20086;-86
2022/01/02 03:06:22;;;;;;;7.85;2.25;;;;;;;8.46;100.00;99447.72;4958549;28;20046;-86
2022/01/02 03:08:49;;;;;;;11.57;2.30;;;;;;;8.02;100.00;99455.91;4954925;28;20047;-85
2022/01/02 03:11:20;;;;;;;8.88;2.00;;;;;;;8.34;100.00;99448.31;4958401;28;20055;-86
2022/01/02 03:13:49;;;;;;;7.30;1.83;;;;;;;8.59;100.00;99442.75;4958170;28;20054;-86
2022/01/02 03:16:17;;;;;;;7.85;2.00;;;;;;;8.61;100.00;99445.28;4958025;28;20047;-86
2022/01/02 03:18:44;;;;;;;8.48;1.65;;;;;;;8.44;100.00;99438.28;4948154;29;20527;-86
2022/01/02 03:21:11;;;;;;;10.90;2.15;;;;;;;8.43;100.00;99442.66;4966038;28;20057;-85
2022/01/02 03:23:39;;;;;;;9.55;2.10;;;;;;;8.35;100.00;99439.53;4994181;28;20046;-85
2022/01/02 03:26:06;;;;;;;6.07;1.92;;;;;;;8.54;100.00;99445.56;4963660;28;20050;-86
2022/01/02 03:28:33;;;;;;;6.63;1.98;;;;;;;8.33;100.00;99433.56;4956870;28;20050;-86
2022/01/02 03:31:00;;;;;;;9.32;2.10;;;;;;;8.35;100.00;99416.06;4957409;28;20059;-86
2022/01/02 03:33:27;;;;;;;11.07;2.85;;;;;;;8.34;100.00;99411.78;4969797;28;20655;-85
2022/01/02 03:35:54;;;;;;;9.82;2.03;;;;;;;8.14;100.00;99421.44;4955608;29;20075;-85
2022/01/02 03:38:21;;;;;;;9.80;2.10;;;;;;;8.38;100.00;99421.16;4960054;28;20486;-85
2022/01/02 03:40:47;;;;;;;7.88;2.15;;;;;;;8.17;100.00;99396.97;4958073;28;20055;-85
2022/01/02 03:43:14;;;;;;;11.95;2.65;;;;;;;8.26;100.00;99403.50;4974972;28;20057;-85
2022/01/02 03:45:41;;;;;;;8.90;2.33;;;;;;;8.23;100.00;99414.06;4974481;28;20404;-85
2022/01/02 03:48:08;;;;;;;11.43;2.47;;;;;;;8.14;100.00;99392.75;4956690;28;20117;-85
2022/01/02 03:50:35;;;;;;;12.05;2.33;;;;;;;8.43;100.00;99421.81;4974176;28;20047;-86
2022/01/02 03:53:03;;;;;;;15.52;3.40;;;;;;;8.21;100.00;99415.91;4957540;28;20058;-86
2022/01/02 03:55:30;;;;;;;18.52;3.55;;;;;;;8.01;100.00;99409.06;4957696;28;20054;-85
2022/01/02 03:57:57;;;;;;;13.55;3.15;;;;;;;7.87;100.00;99401.91;4972098;28;20043;-85
2022/01/02 04:00:24;;;;;;;13.07;2.88;;;;;;;7.89;100.00;99405.28;4954412;28;20063;-85
2022/01/02 04:02:50;;;;;;;13.80;2.90;;;;;;;8.02;100.00;99395.97;4956107;28;20053;-85
2022/01/02 04:05:17;;;;;;;18.90;3.78;;;;;;;7.95;100.00;99389.34;4956703;28;20085;-86
2022/01/02 04:07:44;;;;;;;20.45;2.92;;;;;;;8.10;100.00;99369.50;4955293;28;20051;-85
2022/01/02 04:10:14;;;;;;;13.93;3.35;;;;;;;8.31;100.00;99394.53;4938047;29;20054;-85
2022/01/02 04:12:42;;;;;;;14.68;2.85;;;;;;;8.21;100.00;99382.84;4937794;29;20051;-86
2022/01/02 04:15:11;;;;;;;11.57;2.67;;;;;;;8.08;100.00;99385.22;4954140;29;20053;-86
2022/01/02 04:17:39;;;;;;;11.80;2.85;;;;;;;7.85;100.00;99386.34;4954352;28;20051;-85
2022/01/02 04:20:08;;;;;;;17.67;3.35;;;;;;;8.05;100.00;99369.72;4956029;28;20047;-85
2022/01/02 04:22:36;;;;;;;16.80;3.45;;;;;;;8.19;100.00;99369.06;4972703;28;20054;-86
2022/01/02 04:25:04;;;;;;;15.35;3.55;;;;;;;8.29;100.00;99379.88;4956737;28;20063;-86
2022/01/02 04:27:31;;;;;;;17.13;3.20;;;;;;;8.30;100.00;99387.59;4956549;28;20051;-86
2022/01/02 04:29:58;;;;;;;21.90;4.25;;;;;;;8.21;100.00;99377.63;4971527;28;20488;-86
2022/01/02 04:32:25;;;;;;;16.45;3.50;;;;;;;8.32;100.00;99385.78;4973040;28;20058;-85
2022/01/02 04:34:52;;;;;;;17.17;3.85;;;;;;;8.06;100.00;99391.44;4955680;28;20051;-86
2022/01/02 04:37:18;;;;;;;17.67;3.63;;;;;;;8.15;100.00;99391.81;4956281;28;20061;-86
2022/01/02 04:39:45;;;;;;;18.40;3.80;;;;;;;8.22;100.00;99387.16;4974225;28;20046;-86
2022/01/02 04:42:12;;;;;;;15.43;3.58;;;;;;;8.27;100.00;99413.00;4956767;28;20057;-86
2022/01/02 04:44:39;;;;;;;19.23;4.22;;;;;;;8.36;100.00;99395.13;4955986;28;20055;-86
2022/01/02 04:47:06;;;;;;;18.77;3.33;;;;;;;8.27;100.00;99382.56;4956789;28;20047;-86
2022/01/02 04:49:32;;;;;;;14.63;3.90;;;;;;;8.38;100.00;99402.91;4955355;28;20047;-86
2022/01/02 04:51:59;;;;;;;15.63;3.25;;;;;;;8.64;100.00;99396.41;4973429;28;20055;-86
2022/01/02 04:54:26;;;;;;;12.65;3.03;;;;;;;8.53;100.00;99376.06;4973316;28;20057;-85
2022/01/02 04:56:53;;;;;;;11.40;3.05;;;;;;;8.41;100.00;99366.22;4945900;28;20142;-86
2022/01/02 04:59:19;;;;;;;19.40;3.15;;;;;;;8.71;100.00;99374.28;4942857;29;20044;-86
2022/01/02 05:01:46;;;;;;;15.13;2.72;;;;;;;8.69;100.00;99360.47;4951073;28;20401;-86
2022/01/02 05:04:14;;;;;;;17.33;3.30;;;;;;;8.72;100.00;99359.47;4955696;28;20046;-86
2022/01/02 05:06:40;;;;;;;15.05;2.45;;;;;;;8.69;100.00;99347.44;4973184;28;20062;-86
2022/01/02 05:09:08;;;;;;;12.40;2.70;;;;;;;8.63;100.00;99342.50;4954765;28;20057;-86
2022/01/02 05:11:35;;;;;;;11.10;2.70;;;;;;;8.63;100.00;99328.63;4955348;28;20065;-85
2022/01/02 05:14:02;;;;;;;11.02;2.20;;;;;;;8.63;100.00;99321.66;4957743;28;20208;-86
2022/01/02 05:16:29;;;;;;;9.55;2.33;;;;;;;8.44;100.00;99311.31;4956098;28;20065;-86
2022/01/02 05:18:56;;;;;;;14.77;2.60;;;;;;;8.31;100.00;99303.25;4975083;28;20050;-86
2022/01/02 05:21:22;;;;;;;12.52;2.58;;;;;;;8.35;100.00;99293.50;4961325;28;20054;-86
2022/01/02 05:23:49;;;;;;;9.82;2.63;;;;;;;8.38;100.00;99277.69;4962019;28;20055;-86
2022/01/02 05:26:16;;;;;;;10.30;2.63;;;;;;;8.60;100.00;99297.47;4961831;28;20053;-86
2022/01/02 05:28:43;;;;;;;12.23;2.55;;;;;;;8.33;100.00;99269.28;4957280;28;20506;-85
2022/01/02 05:31:09;;;;;;;14.70;3.13;;;;;;;8.42;100.00;99275.78;4942442;29;20047;-85
2022/01/02 05:33:36;;;;;;;13.43;3.10;;;;;;;8.28;100.00;99272.09;4945484;28;20073;-85
2022/01/02 05:36:03;;;;;;;12.25;3.95;;;;;;;8.32;100.00;99284.09;4962536;28;20409;-86
2022/01/02 05:38:30;;;;;;;14.50;3.00;;;;;;;8.41;100.00;99287.97;4976420;28;20495;-85
2022/01/02 05:40:57;;;;;;;16.05;4.55;;;;;;;8.23;100.00;99284.53;4978876;28;20050;-85
2022/01/02 05:43:24;;;;;;;11.45;2.88;;;;;;;8.44;100.00;99297.44;4961568;28;20462;-85
2022/01/02 05:45:51;;;;;;;13.35;3.42;;;;;;;8.10;100.00;99292.13;4961337;28;20053;-85
2022/01/02 05:48:18;;;;;;;11.70;3.05;;;;;;;8.27;100.00;99295.66;4961288;28;20113;-85
2022/01/02 05:50:45;;;;;;;10.73;2.75;;;;;;;8.27;100.00;99287.81;4977674;28;20057;-85
2022/01/02 05:53:12;;;;;;;16.90;3.33;;;;;;;8.09;100.00;99310.47;4962192;28;20493;-85
2022/01/02 05:55:43;;;;;;;13.48;2.60;;;;;;;8.27;100.00;99299.13;4979788;28;20076;-85
2022/01/02 05:58:10;;;;;;;12.93;2.40;;;;;;;8.43;100.00;99306.16;4960749;28;20053;-85
2022/01/02 06:00:37;;;;;;;13.43;2.58;;;;;;;8.29;100.00;99292.06;4979321;28;20051;-85
2022/01/02 06:03:04;;;;;;;21.77;4.28;;;;;;;8.08;100.00;99303.56;4978909;28;20046;-85
2022/01/02 06:05:31;;;;;;;12.00;2.50;;;;;;;7.92;100.00;99306.94;4979357;28;20548;-85
2022/01/02 06:07:57;;;;;;;16.88;4.80;;;;;;;7.81;100.00;99314.44;4960755;28;20393;-85
2022/01/02 06:10:24;;;;;;;15.82;2.88;;;;;;;8.10;100.00;99312.16;4943125;29;20378;-86
2022/01/02 06:12:51;;;;;;;17.55;3.75;;;;;;;8.06;100.00;99316.69;4943126;29;20058;-85
2022/01/02 06:15:18;;;;;;;21.92;4.72;;;;;;;7.96;100.00;99313.69;4942852;29;20067;-85
2022/01/02 06:17:44;;;;;;;17.15;3.00;;;;;;;8.03;100.00;99327.25;4943562;28;20051;-85
2022/01/02 06:20:11;;;;;;;13.07;3.10;;;;;;;8.02;100.00;99317.75;4942795;29;20047;-85
2022/01/02 06:22:38;;;;;;;13.10;3.83;;;;;;;8.12;100.00;99310.31;4959033;29;20055;-85
2022/01/02 06:25:05;;;;;;;15.77;3.38;;;;;;;8.13;100.00;99327.66;4948003;28;20051;-85
2022/01/02 06:27:32;;;;;;;16.85;2.95;;;;;;;8.24;100.00;99316.69;4979256;28;20046;-85
2022/01/02 06:29:59;;;;;;;12.73;2.33;;;;;;;8.34;100.00;99303.09;4942100;28;20429;-85
2022/01/02 06:32:25;;;;;;;11.65;2.30;;;;;;;8.37;100.00;99307.31;4958644;28;20047;-85
2022/01/02 06:34:52;;;;;;;12.57;2.55;;;;;;;8.31;100.00;99298.03;4958461;28;20058;-85
2022/01/02 06:37:20;;;;;;;9.57;2.17;;;;;;;8.21;100.00;99286.38;4958501;28;20050;-85
2022/01/02 06:39:46;;;;;;;8.20;2.30;;;;;;;8.22;100.00;99293.28;4957169;28;20053;-86
2022/01/02 06:42:13;;;;;;;15.63;2.65;;;;;;;8.02;100.00;99272.59;4974963;28;20062;-85
2022/01/02 06:44:40;;;;;;;12.32;2.55;;;;;;;8.01;100.00;99263.94;4958555;28;20051;-85
2022/01/02 06:47:07;;;;;;;11.30;3.20;;;;;;;8.10;100.00;99271.28;4958735;28;20054;-85
2022/01/02 06:49:34;;;;;;;15.20;3.08;;;;;;;8.05;100.00;99267.22;4957824;28;20047;-85
2022/01/02 06:52:01;;;;;;;12.60;3.13;;;;;;;8.17;100.00;99253.56;4958524;28;20087;-85
2022/01/02 06:54:27;;;;;;;15.15;4.28;;;;;;;8.11;100.00;99256.47;4958363;28;20061;-85
2022/01/02 06:56:54;;;;;;;25.55;3.92;;;;;;;7.91;100.00;99254.88;4974905;28;20058;-85
2022/01/02 06:59:22;;;;;;;18.35;4.50;;;;;;;8.24;100.00;99241.91;4956763;28;20042;-85
2022/01/02 07:01:49;;;;;;;14.05;3.42;;;;;;;8.26;100.00;99249.66;4958471;28;20051;-85
2022/01/02 07:04:16;;;;;;;16.15;3.17;;;;;;;8.24;100.00;99254.94;4957533;28;20482;-85
2022/01/02 07:06:43;;;;;;;19.48;3.95;;;;;;;8.06;100.00;99243.69;4957902;28;20074;-85
2022/01/02 07:09:10;;;;;;;16.02;3.08;;;;;;;8.06;100.00;99235.88;4971057;28;20042;-85
2022/01/02 07:11:36;;;;;;;14.85;3.25;;;;;;;8.24;100.00;99234.06;4974456;28;20054;-85
2022/01/02 07:14:03;;;;;;;20.23;3.47;;;;;;;8.22;100.00;99220.28;4965059;28;20061;-85
2022/01/02 07:16:30;;;;;;;9.93;2.60;;;;;;;8.23;100.00;99226.34;4963911;28;20382;-85
2022/01/02 07:18:57;;;;;;;10.35;2.95;;;;;;;8.17;100.00;99224.91;4956532;28;20050;-85
2022/01/02 07:21:24;;;;;;;18.38;3.00;;;;;;;8.22;100.00;99227.28;4957428;28;20134;-85
2022/01/02 07:23:52;;;;;;;15.35;2.88;;;;;;;8.13;100.00;99223.38;4958008;28;20440;-85
2022/01/02 07:26:19;;;;;;;17.10;3.08;;;;;;;8.15;100.00;99211.09;4957676;28;20051;-85
2022/01/02 07:28:46;;;;;;;15.73;3.90;;;;;;;8.05;100.00;99212.50;4966888;28;20051;-85
2022/01/02 07:31:13;;;;;;;9.80;2.55;;;;;;;8.06;100.00;99201.16;4957237;28;20059;-85
2022/01/02 07:33:39;;;;;;;16.08;3.85;;;;;;;7.91;100.00;99193.19;4955912;28;20110;-85
2022/01/02 07:36:06;;;;;;;10.10;2.83;;;;;;;8.08;100.00;99189.72;4974541;28;20642;-85
2022/01/02 07:38:33;;;;;;;10.57;2.97;;;;;;;8.10;100.00;99197.47;4956667;28;20061;-85
2022/01/02 07:41:00;;;;;;;12.32;2.60;;;;;;;7.98;100.00;99185.88;4957613;28;20461;-85
2022/01/02 07:43:26;;;;;;;13.82;2.90;;;;;;;7.96;100.00;99183.38;4974767;28;20465;-85
2022/01/02 07:45:53;;;;;;;11.77;2.65;;;;;;;8.12;100.00;99196.44;4973385;28;20084;-85
2022/01/02 07:48:20;;;;;;;13.68;2.65;;;;;;;7.98;100.00;99178.06;4972926;28;20469;-85
2022/01/02 07:50:47;;;;;;;15.75;3.70;;;;;;;7.97;100.00;99181.63;4955998;28;20043;-85
2022/01/02 07:53:13;;;;;;;14.45;3.63;;;;;;;7.89;100.00;99194.19;4974020;28;20169;-85
2022/01/02 07:55:40;;;;;;;20.30;4.03;;;;;;;7.91;100.00;99194.94;4974481;28;20057;-85
2022/01/02 07:58:11;;;;;;;19.92;4.20;;;;;;;7.89;100.00;99170.72;4970226;28;20082;-85
2022/01/02 08:00:38;;;;;;;12.07;3.13;;;;;;;7.98;100.00;99183.28;4956974;28;20051;-85
2022/01/02 08:03:05;;;;;;;14.38;2.90;;;;;;;8.02;100.00;99183.97;4957209;28;20141;-86
2022/01/02 08:05:38;;;;;;;21.50;3.50;;;;;;;7.95;100.00;99168.66;4957935;28;20057;-86
2022/01/02 08:08:05;;;;;;;17.77;3.83;;;;;;;7.92;100.00;99183.63;4956211;28;20051;-85
2022/01/02 08:10:31;;;;;;;14.80;3.28;;;;;;;8.13;100.00;99186.88;4957263;28;20053;-85
2022/01/02 08:12:58;;;;;;;14.48;3.70;;;;;;;8.18;100.00;99190.09;4956572;28;20061;-85
2022/01/02 08:15:25;;;;;;;11.90;3.13;;;;;;;8.36;100.00;99185.66;4974018;28;20047;-85
2022/01/02 08:17:52;;;;;;;14.93;3.65;;;;;;;8.34;100.00;99196.16;4956149;28;20050;-85
2022/01/02 08:20:19;;;;;;;13.18;3.08;;;;;;;8.26;100.00;99192.28;4955703;28;20054;-86
2022/01/02 08:22:45;;;;;;;18.50;4.55;;;;;;;8.20;100.00;99206.50;4973202;28;20141;-84
2022/01/02 08:25:12;;;;;;;23.90;3.88;;;;;;;8.30;100.00;99206.84;4955768;28;20055;-85
2022/01/02 08:27:39;;;;;;;12.82;3.28;;;;;;;8.36;100.00;99209.13;4955785;28;20055;-85
2022/01/02 08:30:07;;;;;;;18.80;3.58;;;;;;;8.36;100.00;99203.91;4953803;28;20045;-85
2022/01/02 08:32:33;;;;;;;17.13;3.53;;;;;;;8.30;100.00;99202.44;4973736;28;20425;-86
2022/01/02 08:35:00;;;;;;;16.98;3.53;;;;;;;8.24;100.00;99200.19;4963423;28;20051;-86
2022/01/02 08:37:27;;;;;;;17.98;3.60;;;;;;;8.10;100.00;99190.47;4956132;28;20050;-85
2022/01/02 08:39:54;;;;;;;11.43;2.88;;;;;;;8.38;100.00;99203.84;4970811;28;20503;-85
2022/01/02 08:42:20;;;;;;;13.98;3.47;;;;;;;8.32;100.00;99190.19;4972444;28;20058;-86
2022/01/02 08:44:47;;;;;;;22.38;4.65;;;;;;;8.25;100.00;99188.84;4956091;28;20054;-86
2022/01/02 08:47:14;;;;;;;12.93;3.25;;;;;;;8.44;100.00;99182.66;4956596;28;20054;-85
2022/01/02 08:49:42;;;;;;;15.27;3.30;;;;;;;8.58;100.00;99187.16;4954819;28;20051;-85
2022/01/02 08:52:08;;;;;;;14.88;2.70;;;;;;;8.49;100.00;99171.06;4956091;28;20055;-85
2022/01/02 08:54:35;;;;;;;10.88;2.90;;;;;;;8.61;100.00;99171.34;4966855;28;20688;-86
2022/01/02 08:57:02;;;;;;;13.05;4.70;;;;;;;8.51;100.00;99174.41;4954579;28;20055;-86
2022/01/02 08:59:29;;;;;;;14.93;2.63;;;;;;;8.66;100.00;99164.94;4954141;28;20097;-85
2022/01/02 09:01:57;;;;;;;11.40;2.90;;;;;;;8.76;100.00;99174.88;4972456;28;20076;-85
2022/01/02 09:04:23;;;;;;;17.20;3.28;;;;;;;8.69;100.00;99156.09;4955780;28;20528;-85
2022/01/02 09:06:51;;;;;;;14.25;4.05;;;;;;;8.68;100.00;99165.69;4973025;28;20051;-86
2022/01/02 09:09:18;;;;;;;10.95;3.80;;;;;;;8.44;100.00;99154.81;4968392;28;20050;-85
2022/01/02 09:11:45;;;;;;;11.70;2.67;;;;;;;8.46;100.00;99152.13;4951576;29;20074;-85
2022/01/02 09:14:12;;;;;;;12.85;3.30;;;;;;;8.35;100.00;99160.50;4942941;28;20129;-83
2022/01/02 09:16:44;;;;;;;13.48;3.10;;;;;;;8.24;100.00;99149.81;4955859;28;20134;-85
2022/01/02 09:19:12;;;;;;;22.20;4.63;;;;;;;8.28;100.00;99141.72;4944384;29;20508;-85
2022/01/02 09:21:39;;;;;;;21.85;5.63;;;;;;;8.27;100.00;99129.63;4955606;28;20062;-85
2022/01/02 09:24:08;;;;;;;18.45;4.35;;;;;;;8.61;100.00;99135.66;4952183;29;20065;-86
2022/01/02 09:26:34;;;;;;;26.08;4.43;;;;;;;8.53;100.00;99135.22;4970215;28;20065;-85
2022/01/02 09:29:01;;;;;;;19.20;4.65;;;;;;;8.57;100.00;99139.34;4954708;28;20051;-85
2022/01/02 09:31:28;;;;;;;20.25;4.40;;;;;;;8.22;100.00;99123.81;4955052;28;20555;-84
2022/01/02 09:33:55;;;;;;;25.08;5.55;;;;;;;8.33;100.00;99133.66;4971900;28;20050;-84
2022/01/02 09:36:22;;;;;;;18.85;5.78;;;;;;;8.13;100.00;99134.75;4938567;29;20055;-86
2022/01/02 09:38:50;;;;;;;22.42;4.53;;;;;;;8.30;100.00;99133.81;4962065;28;20064;-89
2022/01/02 09:41:20;;;;;;;17.35;5.60;;;;;;;8.26;100.00;99155.78;4972709;28;20046;-89
2022/01/02 09:43:48;;;;;;;19.33;4.32;;;;;;;8.30;100.00;99152.91;4955097;28;20051;-89
2022/01/02 09:46:23;;;;;;;15.07;4.05;;;;;;;8.36;100.00;99162.19;4955180;28;20050;-89
2022/01/02 09:48:51;;;;;;;23.00;4.70;;;;;;;8.49;100.00;99159.78;4944918;28;20492;-88
2022/01/02 09:51:22;;;;;;;17.92;4.15;;;;;;;8.42;100.00;99158.41;4955553;28;20424;-88
2022/01/02 09:53:49;;;;;;;25.67;5.78;;;;;;;8.52;100.00;99149.19;4956348;28;20047;-91
2022/01/02 09:56:16;;;;;;;19.73;4.10;;;;;;;8.71;100.00;99143.78;4956461;28;20563;-91
2022/01/02 09:58:44;;;;;;;22.85;4.88;;;;;;;8.51;100.00;99126.63;4946618;29;20066;-91
2022/01/02 10:01:19;;;;;;;25.13;4.60;;;;;;;8.62;100.00;99126.88;4955571;28;20142;-90
2022/01/02 10:03:51;;;;;;;14.90;3.75;;;;;;;8.60;100.00;99135.72;4972540;28;20452;-88
2022/01/02 10:06:18;;;;;;;22.65;4.97;;;;;;;8.38;100.00;99117.78;4972493;28;20055;-88
2022/01/02 10:08:46;;;;;;;15.95;3.83;;;;;;;8.39;100.00;99099.41;4950224;28;20516;-89
2022/01/02 10:11:24;;;;;;;18.83;5.38;;;;;;;8.42;100.00;99098.41;4946956;28;20047;-90
2022/01/02 10:13:59;;;;;;;18.23;3.60;;;;;;;8.76;100.00;99123.50;4959599;28;20764;-90
2022/01/02 10:16:42;;;;;;;24.60;4.40;;;;;;;8.50;100.00;99124.97;4958992;28;20077;-90
2022/01/02 10:19:29;;;;;;;24.35;4.50;;;;;;;8.98;100.00;99124.91;4947932;28;20065;-90
2022/01/02 10:22:04;;;;;;;12.32;3.17;;;;;;;8.96;100.00;99137.19;4974634;28;20097;-86
2022/01/02 10:24:32;;;;;;;19.00;4.25;;;;;;;8.85;100.00;99130.84;4957972;28;20057;-86
2022/01/02 10:27:18;;;;;;;17.33;4.07;;;;;;;9.12;100.00;99117.97;4955011;29;20578;-86
2022/01/02 10:29:54;;;;;;;19.55;4.03;;;;;;;9.23;100.00;99114.75;4956520;28;20043;-85
2022/01/02 10:32:31;;;;;;;18.55;3.50;;;;;;;9.12;100.00;99114.53;4951763;28;20050;-86
2022/01/02 10:35:23;;;;;;;12.75;2.80;;;;;;;9.07;100.00;99113.97;4971873;28;20505;-89
2022/01/02 10:37:56;;;;;;;23.05;4.18;;;;;;;9.11;100.00;99105.00;4952152;28;20089;-89
2022/01/02 10:40:29;;;;;;;15.03;4.00;;;;;;;9.06;100.00;99114.88;4952753;28;20400;-90
2022/01/02 10:42:58;;;;;;;19.73;4.15;;;;;;;9.04;100.00;99109.75;4958509;28;20073;-91
2022/01/02 10:45:37;;;;;;;18.65;3.83;;;;;;;9.38;100.00;99094.72;4958792;28;20051;-91
2022/01/02 10:48:07;;;;;;;22.98;4.50;;;;;;;9.12;100.00;99089.25;4965719;28;20047;-91
2022/01/02 10:50:35;;;;;;;16.17;5.10;;;;;;;8.99;100.00;99077.00;4939581;29;20052;-91
2022/01/02 10:53:17;;;;;;;24.20;4.35;;;;;;;9.29;100.00;99080.44;4939637;29;20061;-91
2022/01/02 10:55:45;;;;;;;18.02;3.40;;;;;;;9.20;100.00;99065.31;4956558;28;20402;-91
2022/01/02 10:58:14;;;;;;;15.95;3.20;;;;;;;9.44;100.00;99077.88;4941896;28;20043;-91
2022/01/02 11:00:41;;;;;;;23.60;4.05;;;;;;;9.49;100.00;99075.78;4959504;28;20401;-90
2022/01/02 11:03:09;;;;;;;15.60;4.15;;;;;;;9.22;100.00;99076.50;4959373;28;20055;-91
2022/01/02 11:05:37;;;;;;;13.90;3.50;;;;;;;9.42;100.00;99061.41;4959683;28;20109;-90
2022/01/02 11:08:05;;;;;;;16.35;3.20;;;;;;;9.25;100.00;99052.81;4955934;28;20049;-91
2022/01/02 11:10:35;;;;;;;17.13;3.83;;;;;;;9.31;100.00;99052.47;4976493;28;20541;-91
2022/01/02 11:13:04;;;;;;;14.75;4.10;;;;;;;9.45;100.00;99058.63;4976010;28;20109;-91
2022/01/02 11:15:32;;;;;;;16.92;3.08;;;;;;;9.43;100.00;99056.09;4959343;28;20055;-90
2022/01/02 11:18:00;;;;;;;12.60;3.20;;;;;;;9.55;100.00;99051.94;4957647;28;20389;-90
2022/01/02 11:20:31;;;;;;;14.88;4.53;;;;;;;9.38;100.00;99044.25;4939672;29;20053;-90
2022/01/02 11:23:16;;;;;;;12.80;3.00;;;;;;;9.46;100.00;99032.41;4940098;29;20051;-90
2022/01/02 11:26:15;;;;;;;20.25;4.40;;;;;;;9.65;100.00;99026.94;4951483;28;20051;-91
2022/01/02 11:29:02;;;;;;;19.30;3.80;;;;;;;9.69;100.00;98998.84;4964004;28;20490;-91
2022/01/02 11:31:38;;;;;;;19.40;4.63;;;;;;;9.43;100.00;99001.25;4939739;29;20047;-91
2022/01/02 11:34:24;;;;;;;11.65;3.10;;;;;;;9.62;100.00;98987.06;4940461;28;20075;-90
2022/01/02 11:37:12;;;;;;;23.85;3.75;;;;;;;9.71;100.00;99004.78;4958197;28;20413;-90
2022/01/02 11:39:59;;;;;;;17.20;3.72;;;;;;;9.86;100.00;99003.84;4957977;28;20054;-90
2022/01/02 11:42:35;;;;;;;13.63;3.20;;;;;;;9.83;100.00;99011.06;4958993;28;20058;-91